Time;durP1;ratioP1;P1;durP2;ratioP2;P2;SDS_P1;SDS_P2;PMS_P1;PMS_P2;Temp;Humidity;BMP_temperature;BMP_pressure;BME280_temperature;BME280_humidity;BME280_pressure;Samples;Min_cycle;Max_cycle;Signal;HPM_P1;HPM_P2
2022/05/03 00:04:58;;;;;;;2.23;1.37;;;6.90;99.90;;;;;;5072689;28;20490;-73
2022/05/03 00:07:51;;;;;;;3.72;1.88;;;6.80;99.90;;;;;;5071707;28;20286;-72
2022/05/03 00:10:28;;;;;;;4.30;2.03;;;6.70;99.90;;;;;;5071691;28;20051;-71
2022/05/03 00:13:00;;;;;;;1.25;1.05;;;6.70;99.90;;;;;;5071617;28;20106;-73
2022/05/03 00:15:27;;;;;;;2.45;1.27;;;6.70;99.90;;;;;;5071636;28;20119;-72
2022/05/03 00:17:54;;;;;;;2.55;1.75;;;6.60;99.90;;;;;;5054949;28;20091;-73
2022/05/03 00:20:21;;;;;;;1.40;1.10;;;6.60;99.90;;;;;;5071632;28;20040;-72
2022/05/03 00:22:47;;;;;;;6.03;2.20;;;6.60;99.90;;;;;;5054865;28;20131;-72
2022/05/03 00:25:14;;;;;;;4.15;1.98;;;6.50;99.90;;;;;;5055261;28;20040;-72
2022/05/03 00:27:41;;;;;;;1.75;1.25;;;6.50;99.90;;;;;;5054771;28;20131;-72
2022/05/03 00:30:07;;;;;;;1.08;0.98;;;6.50;99.90;;;;;;5072729;28;20461;-72
2022/05/03 00:32:34;;;;;;;2.78;1.58;;;6.50;99.90;;;;;;5071490;28;20076;-73
2022/05/03 00:35:00;;;;;;;3.60;1.85;;;6.50;99.90;;;;;;5038826;28;20541;-72
2022/05/03 00:37:27;;;;;;;1.52;1.25;;;6.40;99.90;;;;;;5071674;28;20048;-73
2022/05/03 00:39:53;;;;;;;3.60;1.60;;;6.40;99.90;;;;;;5071353;28;20079;-73
2022/05/03 00:42:25;;;;;;;1.73;0.98;;;6.40;99.90;;;;;;5071350;28;20492;-72
2022/05/03 00:45:00;;;;;;;3.15;1.50;;;6.40;99.90;;;;;;5071389;28;20049;-72
2022/05/03 00:47:38;;;;;;;1.90;1.40;;;6.40;99.90;;;;;;5071666;28;20088;-72
2022/05/03 00:50:09;;;;;;;1.48;1.10;;;6.30;99.90;;;;;;5071445;28;20404;-72
2022/05/03 00:52:55;;;;;;;2.35;1.27;;;6.30;99.90;;;;;;5054807;28;20048;-72
2022/05/03 00:55:42;;;;;;;2.92;1.73;;;6.30;99.90;;;;;;5071585;28;20033;-72
2022/05/03 00:58:09;;;;;;;3.33;1.80;;;6.30;99.90;;;;;;5054606;28;20400;-72
2022/05/03 01:00:38;;;;;;;3.75;1.52;;;6.30;99.90;;;;;;5071272;28;20041;-72
2022/05/03 01:03:11;;;;;;;2.53;1.42;;;6.20;99.90;;;;;;5071590;28;20037;-73
2022/05/03 01:06:08;;;;;;;2.40;1.55;;;6.20;99.90;;;;;;5071451;28;20037;-73
2022/05/03 01:08:57;;;;;;;15.68;2.70;;;6.20;99.90;;;;;;5054720;28;20460;-73
2022/05/03 01:11:37;;;;;;;3.40;1.83;;;6.20;99.90;;;;;;5071156;28;20048;-73
2022/05/03 01:14:12;;;;;;;4.25;1.30;;;6.20;99.90;;;;;;5071139;28;20041;-73
2022/05/03 01:17:05;;;;;;;4.28;2.28;;;6.10;99.90;;;;;;5070849;28;20157;-73
2022/05/03 01:19:55;;;;;;;3.25;2.13;;;6.10;99.90;;;;;;5048786;28;20045;-73
2022/05/03 01:22:43;;;;;;;2.67;1.70;;;6.10;99.90;;;;;;5070955;28;20125;-72
2022/05/03 01:25:27;;;;;;;3.22;1.45;;;6.10;99.90;;;;;;5070969;28;20036;-73
2022/05/03 01:28:05;;;;;;;3.28;1.38;;;6.10;99.90;;;;;;5070984;28;20044;-73
2022/05/03 01:30:31;;;;;;;3.10;1.73;;;6.10;99.90;;;;;;5070933;28;20041;-73
2022/05/03 01:33:09;;;;;;;2.20;1.70;;;6.10;99.90;;;;;;5054694;28;20056;-73
2022/05/03 01:35:38;;;;;;;3.38;2.45;;;6.10;99.90;;;;;;5070847;28;20040;-73
2022/05/03 01:38:52;;;;;;;8.57;1.73;;;6.10;99.90;;;;;;5070799;28;20044;-73
2022/05/03 01:41:46;;;;;;;4.72;1.80;;;6.10;99.90;;;;;;5069549;28;20492;-73
2022/05/03 01:44:44;;;;;;;2.03;1.45;;;6.10;99.90;;;;;;5074287;28;20093;-73
2022/05/03 01:47:25;;;;;;;3.00;1.67;;;6.10;99.90;;;;;;5074275;28;20062;-72
2022/05/03 01:50:19;;;;;;;5.50;2.13;;;6.10;99.90;;;;;;5074242;28;20060;-72
2022/05/03 01:53:00;;;;;;;3.63;1.92;;;6.00;99.90;;;;;;5074202;28;20085;-73
2022/05/03 01:55:57;;;;;;;2.03;1.52;;;6.10;99.90;;;;;;5074203;28;20047;-72
2022/05/03 01:58:41;;;;;;;2.85;1.80;;;6.00;99.90;;;;;;5074044;28;20041;-72
2022/05/03 02:01:18;;;;;;;2.85;1.67;;;5.90;99.90;;;;;;5074320;28;20037;-72
2022/05/03 02:04:06;;;;;;;4.40;1.58;;;5.90;99.90;;;;;;5057877;28;20032;-73
2022/05/03 02:06:55;;;;;;;1.73;1.48;;;5.90;99.90;;;;;;5073919;28;20068;-72
2022/05/03 02:09:44;;;;;;;5.22;2.45;;;5.80;99.90;;;;;;5073888;28;20052;-72
2022/05/03 02:12:15;;;;;;;2.42;1.65;;;5.80;99.90;;;;;;5073350;28;20071;-72
2022/05/03 02:14:53;;;;;;;2.83;2.40;;;5.80;99.90;;;;;;5074005;28;20036;-72
2022/05/03 02:17:43;;;;;;;4.10;2.13;;;5.80;99.90;;;;;;5056930;28;20049;-72
2022/05/03 02:20:40;;;;;;;2.85;1.60;;;5.70;99.90;;;;;;5057049;28;20178;-72
2022/05/03 02:23:30;;;;;;;3.78;1.92;;;5.70;99.90;;;;;;5073645;28;20045;-72
2022/05/03 02:26:08;;;;;;;2.20;1.63;;;5.60;99.90;;;;;;5073593;28;20127;-72
2022/05/03 02:28:51;;;;;;;4.18;2.00;;;5.60;99.90;;;;;;5073566;28;20404;-72
2022/05/03 02:31:30;;;;;;;1.73;1.48;;;5.60;99.90;;;;;;5073568;28;20102;-72
2022/05/03 02:34:07;;;;;;;2.30;1.75;;;5.80;99.90;;;;;;5073465;28;20507;-72
2022/05/03 02:36:39;;;;;;;3.05;1.30;;;5.50;99.90;;;;;;5073364;28;20506;-72
2022/05/03 02:39:06;;;;;;;1.92;1.27;;;5.50;99.90;;;;;;5073982;28;20079;-72
2022/05/03 02:41:38;;;;;;;5.82;2.28;;;5.60;99.90;;;;;;5056545;28;20072;-72
2022/05/03 02:44:04;;;;;;;4.18;1.88;;;5.50;99.90;;;;;;5073238;28;20051;-72
2022/05/03 02:46:49;;;;;;;3.03;1.73;;;5.60;99.90;;;;;;5056545;28;20102;-73
2022/05/03 02:49:32;;;;;;;2.20;1.30;;;5.50;99.90;;;;;;5073193;28;20047;-73
2022/05/03 02:52:23;;;;;;;1.83;1.17;;;5.50;99.90;;;;;;5072948;28;20123;-73
2022/05/03 02:55:13;;;;;;;2.75;1.65;;;5.50;99.90;;;;;;5056272;28;20032;-73
2022/05/03 02:58:01;;;;;;;2.30;1.52;;;5.50;99.90;;;;;;5056313;28;20411;-73
2022/05/03 03:03:44;;;;;;;3.33;1.63;;;5.40;99.90;;;;;;5073161;28;20037;-73
2022/05/03 03:06:21;;;;;;;3.35;2.00;;;5.40;99.90;;;;;;5072761;28;20032;-72
2022/05/03 03:08:48;;;;;;;2.83;1.73;;;5.40;99.90;;;;;;5072716;28;20098;-72
2022/05/03 03:11:23;;;;;;;2.63;2.05;;;5.50;99.90;;;;;;5039656;28;20403;-72
2022/05/03 03:14:27;;;;;;;2.28;1.63;;;6.30;99.90;;;;;;5055878;28;20098;-73
2022/05/03 03:17:07;;;;;;;4.60;2.00;;;5.50;99.90;;;;;;5018185;28;20053;-73
2022/05/03 03:19:57;;;;;;;3.08;2.15;;;5.50;99.90;;;;;;5068698;28;20048;-71
2022/05/03 03:22:28;;;;;;;5.03;2.60;;;5.50;99.90;;;;;;5072451;28;20037;-73
2022/05/03 03:24:56;;;;;;;2.75;1.88;;;5.50;99.90;;;;;;5055725;28;20530;-73
2022/05/03 03:27:24;;;;;;;3.60;1.70;;;5.50;99.90;;;;;;5055713;28;20454;-72
2022/05/03 03:29:55;;;;;;;2.50;1.75;;;5.50;99.90;;;;;;5072333;28;20132;-73
2022/05/03 03:32:25;;;;;;;4.97;2.28;;;5.40;99.90;;;;;;5072577;28;20048;-72
2022/05/03 03:34:54;;;;;;;3.92;2.40;;;5.40;99.90;;;;;;5055574;28;20489;-72
2022/05/03 03:37:23;;;;;;;6.95;2.47;;;5.40;99.90;;;;;;5055459;28;20045;-72
2022/05/03 03:39:49;;;;;;;5.15;2.40;;;5.40;99.90;;;;;;5072103;28;20044;-72
2022/05/03 03:42:14;;;;;;;4.38;2.13;;;5.40;99.90;;;;;;5072509;28;20089;-72
2022/05/03 03:44:40;;;;;;;2.78;2.05;;;5.30;99.90;;;;;;5072018;28;20041;-72
2022/05/03 03:47:06;;;;;;;3.83;2.60;;;5.40;99.90;;;;;;5055740;28;20048;-72
2022/05/03 03:49:34;;;;;;;3.72;1.77;;;5.40;99.90;;;;;;5055632;28;20083;-72
2022/05/03 03:52:00;;;;;;;4.72;1.83;;;5.50;99.90;;;;;;5071875;28;20037;-72
2022/05/03 03:54:27;;;;;;;3.47;2.25;;;5.50;99.90;;;;;;5105802;28;20033;-72
2022/05/03 03:56:55;;;;;;;3.65;2.13;;;5.50;99.90;;;;;;5105701;28;20049;-72
2022/05/03 03:59:22;;;;;;;4.05;2.75;;;5.50;99.90;;;;;;5073210;28;20044;-72
2022/05/03 04:01:49;;;;;;;3.33;2.45;;;5.60;99.90;;;;;;5071762;28;20075;-73
2022/05/03 04:04:17;;;;;;;4.78;2.95;;;6.00;99.90;;;;;;5071232;28;20036;-72
2022/05/03 04:06:43;;;;;;;8.10;2.75;;;5.70;99.90;;;;;;5072018;28;20049;-72
2022/05/03 04:09:09;;;;;;;6.00;2.95;;;5.80;99.90;;;;;;5105568;28;20127;-72
2022/05/03 04:11:45;;;;;;;2.30;1.70;;;5.80;99.90;;;;;;5105640;28;20052;-73
2022/05/03 04:14:12;;;;;;;3.20;2.22;;;5.80;99.90;;;;;;5071960;28;20501;-72
2022/05/03 04:16:38;;;;;;;3.75;2.63;;;5.90;99.90;;;;;;5071385;28;20060;-72
2022/05/03 04:19:03;;;;;;;3.30;2.25;;;5.90;99.90;;;;;;5054998;28;20102;-72
2022/05/03 04:21:29;;;;;;;5.22;1.92;;;6.00;99.90;;;;;;5054940;28;20037;-72
2022/05/03 04:23:55;;;;;;;3.88;3.05;;;6.00;99.90;;;;;;5038540;28;20384;-72
2022/05/03 04:26:20;;;;;;;4.43;2.63;;;5.90;99.90;;;;;;5071602;28;20124;-72
2022/05/03 04:28:46;;;;;;;5.32;2.65;;;5.90;99.90;;;;;;5054796;28;20682;-72
2022/05/03 04:31:12;;;;;;;3.28;2.63;;;6.80;99.90;;;;;;5071495;28;20044;-72
2022/05/03 04:33:37;;;;;;;3.85;2.42;;;5.90;99.90;;;;;;5105288;28;20036;-72
2022/05/03 04:36:04;;;;;;;3.22;2.08;;;5.90;99.90;;;;;;5071772;28;20377;-72
2022/05/03 04:38:30;;;;;;;4.05;2.50;;;6.00;99.90;;;;;;5071414;28;20119;-72
2022/05/03 04:41:03;;;;;;;3.78;2.45;;;6.00;99.90;;;;;;5071395;28;20052;-72
2022/05/03 04:43:29;;;;;;;3.75;2.78;;;6.00;99.90;;;;;;5071622;28;20045;-73
2022/05/03 04:45:55;;;;;;;3.63;2.33;;;6.00;99.90;;;;;;5071223;28;20040;-72
2022/05/03 04:48:20;;;;;;;4.32;2.53;;;5.70;99.90;;;;;;5071593;28;20127;-72
2022/05/03 04:50:47;;;;;;;4.10;3.55;;;6.00;99.90;;;;;;5054351;28;20128;-72
2022/05/03 04:53:16;;;;;;;4.88;2.83;;;6.10;99.90;;;;;;5071212;28;20051;-72
2022/05/03 04:55:42;;;;;;;3.17;2.13;;;5.90;99.90;;;;;;5071280;28;20119;-73
2022/05/03 04:58:08;;;;;;;3.97;2.58;;;7.40;99.90;;;;;;5071083;28;20048;-73
2022/05/03 05:00:34;;;;;;;5.38;2.67;;;6.30;99.90;;;;;;5071130;28;20083;-72
2022/05/03 05:03:00;;;;;;;3.53;2.05;;;6.20;99.90;;;;;;5054455;28;20464;-72
2022/05/03 05:05:25;;;;;;;4.90;3.00;;;6.50;99.90;;;;;;5054402;28;20076;-72
2022/05/03 05:07:51;;;;;;;4.35;2.58;;;6.50;99.90;;;;;;5054729;28;20048;-73
2022/05/03 05:10:23;;;;;;;3.80;2.55;;;6.60;99.90;;;;;;5054381;28;20044;-73
2022/05/03 05:12:55;;;;;;;5.72;3.05;;;6.70;99.90;;;;;;5055446;28;20041;-73
2022/05/03 05:15:25;;;;;;;7.35;3.67;;;6.80;99.90;;;;;;5072134;28;20482;-73
2022/05/03 05:17:51;;;;;;;8.25;3.55;;;6.90;99.90;;;;;;5058361;28;20061;-72
2022/05/03 05:20:17;;;;;;;6.93;3.25;;;6.90;99.90;;;;;;5041643;28;20043;-73
2022/05/03 05:22:44;;;;;;;4.82;3.30;;;7.10;99.90;;;;;;5058339;28;20033;-73
2022/05/03 05:25:10;;;;;;;5.30;2.85;;;6.90;99.90;;;;;;5057980;28;20040;-73
2022/05/03 05:27:36;;;;;;;5.20;3.85;;;7.00;99.90;;;;;;5075007;28;20032;-73
2022/05/03 05:30:03;;;;;;;8.95;4.03;;;7.30;99.90;;;;;;5058393;28;20049;-74
2022/05/03 05:32:29;;;;;;;5.22;2.63;;;7.30;99.90;;;;;;5074524;28;20041;-74
2022/05/03 05:34:55;;;;;;;4.63;3.42;;;7.40;99.90;;;;;;5074802;28;20051;-72
2022/05/03 05:37:20;;;;;;;9.32;3.63;;;7.90;99.90;;;;;;5074505;28;20048;-72
2022/05/03 05:39:46;;;;;;;6.80;3.53;;;7.60;99.90;;;;;;5074723;28;20080;-73
2022/05/03 05:42:12;;;;;;;5.07;3.22;;;7.70;99.90;;;;;;5057708;28;20090;-73
2022/05/03 05:44:38;;;;;;;11.88;3.53;;;7.80;99.90;;;;;;5057892;28;20044;-73
2022/05/03 05:47:05;;;;;;;9.45;4.35;;;7.60;99.90;;;;;;5041600;28;20123;-73
2022/05/03 05:49:31;;;;;;;8.45;4.97;;;7.90;99.90;;;;;;5058133;28;20085;-70
2022/05/03 05:53:31;;;;;;;9.75;4.60;;;8.00;99.90;;;;;;5074487;28;20071;-72
2022/05/03 05:54:43;;;;;;;8.98;4.18;;;8.10;99.90;;;;;;5074035;28;20049;-74
2022/05/03 05:57:09;;;;;;;7.93;5.45;;;8.30;99.90;;;;;;5073976;28;20044;-73
2022/05/03 05:59:35;;;;;;;9.95;4.85;;;8.20;99.90;;;;;;5074040;28;20032;-72
2022/05/03 06:02:01;;;;;;;4.47;3.33;;;8.50;99.90;;;;;;5057331;28;20044;-73
2022/05/03 06:04:29;;;;;;;8.27;4.70;;;8.30;99.90;;;;;;5057217;28;20036;-72
2022/05/03 06:06:58;;;;;;;7.50;4.50;;;8.30;99.90;;;;;;5073901;28;20036;-73
2022/05/03 06:09:24;;;;;;;8.98;4.32;;;8.90;99.90;;;;;;5057264;28;20044;-73
2022/05/03 06:11:49;;;;;;;9.98;5.05;;;8.40;99.90;;;;;;5057280;28;20044;-72
2022/05/03 06:14:15;;;;;;;8.48;4.30;;;8.30;99.90;;;;;;5057210;28;20041;-73
2022/05/03 06:16:52;;;;;;;9.40;4.55;;;8.50;99.90;;;;;;5073654;28;20186;-72
2022/05/03 06:19:18;;;;;;;10.98;4.97;;;8.40;99.90;;;;;;5073895;28;20052;-72
2022/05/03 06:21:44;;;;;;;6.72;4.75;;;8.60;99.90;;;;;;5057150;28;20824;-73
2022/05/03 06:24:10;;;;;;;8.63;5.25;;;8.70;99.90;;;;;;5073922;28;20123;-74
2022/05/03 06:26:36;;;;;;;6.93;4.20;;;8.70;99.90;;;;;;5056662;28;20048;-73
2022/05/03 06:29:02;;;;;;;8.90;4.53;;;8.80;99.90;;;;;;5056892;28;20498;-72
2022/05/03 06:31:29;;;;;;;7.65;4.28;;;8.90;99.90;;;;;;5056815;28;20044;-73
2022/05/03 06:33:55;;;;;;;7.68;4.10;;;8.60;99.90;;;;;;5073426;28;20037;-73
2022/05/03 06:36:22;;;;;;;12.57;5.85;;;8.70;99.90;;;;;;5073203;28;20091;-72
2022/05/03 06:38:48;;;;;;;11.07;5.18;;;8.80;99.90;;;;;;5073102;28;20040;-73
2022/05/03 06:41:16;;;;;;;10.43;4.13;;;8.70;99.90;;;;;;5073214;28;20044;-73
2022/05/03 06:43:42;;;;;;;10.35;5.68;;;8.60;99.90;;;;;;5040198;28;20037;-73
2022/05/03 06:46:08;;;;;;;17.27;5.32;;;9.00;99.90;;;;;;5073011;28;20048;-73
2022/05/03 06:48:33;;;;;;;9.50;5.60;;;9.10;99.90;;;;;;5056694;28;20069;-73
2022/05/03 06:50:59;;;;;;;11.27;5.22;;;9.20;99.90;;;;;;5073308;28;20043;-74
2022/05/03 06:53:25;;;;;;;7.50;4.30;;;9.20;99.90;;;;;;5056578;28;20514;-73
2022/05/03 06:55:51;;;;;;;10.35;5.43;;;9.30;99.90;;;;;;5072896;28;20036;-72
2022/05/03 06:58:17;;;;;;;12.82;5.88;;;9.30;99.90;;;;;;5072811;28;20445;-72
2022/05/03 07:00:42;;;;;;;12.18;5.05;;;9.30;99.90;;;;;;5072961;28;20072;-73
2022/05/03 07:03:08;;;;;;;8.70;5.47;;;9.40;99.90;;;;;;5039367;28;20032;-72
2022/05/03 07:05:34;;;;;;;10.27;4.65;;;9.40;99.90;;;;;;5072612;28;20040;-72
2022/05/03 07:08:00;;;;;;;10.32;5.10;;;9.40;99.90;;;;;;5039341;28;20454;-72
2022/05/03 07:10:26;;;;;;;9.30;5.18;;;9.70;99.90;;;;;;5072662;28;20071;-73
2022/05/03 07:12:52;;;;;;;10.40;5.68;;;9.50;99.90;;;;;;5055934;28;20100;-73
2022/05/03 07:15:18;;;;;;;13.50;6.05;;;9.60;99.90;;;;;;5072857;28;20055;-73
2022/05/03 07:23:16;;;;;;;8.45;4.35;;;9.70;99.90;;;;;;5072382;28;20090;-73
2022/05/03 07:25:44;;;;;;;6.90;4.00;;;9.60;99.90;;;;;;5039447;28;20068;-74
2022/05/03 07:28:11;;;;;;;8.55;4.30;;;9.80;99.90;;;;;;5055895;28;20541;-73
2022/05/03 07:30:37;;;;;;;11.70;3.90;;;9.60;99.90;;;;;;5072239;28;20070;-74
2022/05/03 07:33:03;;;;;;;8.48;3.00;;;9.70;99.90;;;;;;5072487;28;20040;-73
2022/05/03 07:35:29;;;;;;;5.82;3.60;;;9.70;99.90;;;;;;5072200;28;20075;-73
2022/05/03 07:37:55;;;;;;;10.18;3.10;;;9.80;99.90;;;;;;5071207;28;20079;-73
2022/05/03 07:40:20;;;;;;;5.85;2.50;;;9.70;99.90;;;;;;5073586;28;20037;-73
2022/05/03 07:42:47;;;;;;;2.63;1.70;;;9.80;99.90;;;;;;5055328;28;20040;-71
2022/05/03 07:45:12;;;;;;;1.85;0.95;;;9.80;99.90;;;;;;5055304;28;20059;-71
2022/05/03 07:47:38;;;;;;;2.95;1.80;;;9.80;99.90;;;;;;5055335;28;20036;-73
2022/05/03 07:50:05;;;;;;;6.80;1.50;;;9.80;99.90;;;;;;5038661;28;20047;-72
2022/05/03 07:52:32;;;;;;;3.10;1.35;;;9.80;99.90;;;;;;5072176;28;20036;-74
2022/05/03 07:54:57;;;;;;;3.70;1.40;;;9.80;99.90;;;;;;5071850;28;20044;-73
2022/05/03 07:57:24;;;;;;;1.50;1.17;;;9.90;99.90;;;;;;5055452;28;20044;-73
2022/05/03 07:59:54;;;;;;;5.18;1.52;;;9.80;99.90;;;;;;5071827;28;20044;-74
2022/05/03 08:02:20;;;;;;;3.53;1.20;;;10.10;99.90;;;;;;5071818;28;20037;-73
2022/05/03 08:04:46;;;;;;;2.90;1.20;;;10.00;99.90;;;;;;5072033;28;20765;-73
2022/05/03 08:07:12;;;;;;;3.83;1.02;;;10.20;99.90;;;;;;5071750;28;20055;-72
2022/05/03 08:09:37;;;;;;;1.90;1.10;;;10.30;99.90;;;;;;5071695;28;20036;-73
2022/05/03 08:12:04;;;;;;;7.22;1.15;;;10.30;99.90;;;;;;5055372;28;20434;-73
2022/05/03 08:14:30;;;;;;;0.98;0.75;;;10.30;99.90;;;;;;5055290;28;20071;-73
2022/05/03 08:16:56;;;;;;;2.38;1.35;;;10.30;99.90;;;;;;5054676;28;20080;-73
2022/05/03 08:19:25;;;;;;;3.17;1.23;;;10.30;99.90;;;;;;5038412;28;20426;-73
2022/05/03 08:21:52;;;;;;;5.60;1.13;;;10.30;99.90;;;;;;5071497;28;20048;-73
2022/05/03 08:24:19;;;;;;;3.55;1.50;;;10.30;99.90;;;;;;5071881;28;20176;-72
2022/05/03 08:26:45;;;;;;;2.00;1.30;;;10.40;99.90;;;;;;5054772;28;20044;-72
2022/05/03 08:29:11;;;;;;;3.03;1.70;;;10.40;99.90;;;;;;5054976;28;20040;-72
2022/05/03 08:31:37;;;;;;;4.68;2.00;;;10.40;99.90;;;;;;5054742;28;20062;-72
2022/05/03 08:34:03;;;;;;;4.25;1.38;;;10.50;99.90;;;;;;5071588;28;20080;-73
2022/05/03 08:36:29;;;;;;;3.97;1.48;;;10.50;99.90;;;;;;5071607;28;20063;-73
2022/05/03 08:44:25;;;;;;;9.63;1.50;;;10.60;99.90;;;;;;5071623;28;20629;-73
2022/05/03 08:46:55;;;;;;;5.68;1.58;;;10.90;99.90;;;;;;5071242;28;20036;-74
2022/05/03 08:49:24;;;;;;;2.47;1.40;;;10.60;99.90;;;;;;5072150;28;20076;-73
2022/05/03 08:51:52;;;;;;;4.57;1.75;;;10.70;99.90;;;;;;5058692;28;20123;-73
2022/05/03 08:54:20;;;;;;;6.47;1.88;;;10.70;99.90;;;;;;5075507;28;20055;-72
2022/05/03 08:56:47;;;;;;;2.88;1.40;;;10.70;99.90;;;;;;5058700;28;20041;-72
2022/05/03 08:59:13;;;;;;;2.85;1.90;;;10.60;99.90;;;;;;5075187;28;20048;-72
2022/05/03 09:01:39;;;;;;;4.38;1.60;;;10.70;99.90;;;;;;5075483;28;20033;-71
2022/05/03 09:04:06;;;;;;;5.15;1.77;;;10.60;99.90;;;;;;5075177;28;20123;-73
2022/05/03 09:06:44;;;;;;;4.53;1.92;;;10.60;99.90;;;;;;5058554;28;20119;-73
2022/05/03 09:09:12;;;;;;;11.35;1.55;;;10.70;99.90;;;;;;5075036;28;20115;-72
2022/05/03 09:11:46;;;;;;;3.25;1.25;;;10.70;99.90;;;;;;5058227;28;20032;-72
2022/05/03 09:14:27;;;;;;;4.07;1.10;;;10.70;99.90;;;;;;5074777;28;20075;-72
2022/05/03 09:16:53;;;;;;;2.22;1.00;;;10.70;99.90;;;;;;5058028;28;20059;-71
2022/05/03 09:19:23;;;;;;;8.93;2.28;;;10.40;99.90;;;;;;5058465;28;20036;-71
2022/05/03 09:24:55;;;;;;;4.75;1.65;;;10.70;99.90;;;;;;5075072;28;20036;-73
2022/05/03 09:27:22;;;;;;;1.92;0.85;;;10.70;99.90;;;;;;5074618;28;20037;-71
2022/05/03 09:30:01;;;;;;;1.75;1.13;;;11.00;99.90;;;;;;5074551;28;20455;-70
2022/05/03 09:32:43;;;;;;;6.13;1.17;;;10.70;99.90;;;;;;5074866;28;20080;-72
2022/05/03 09:35:35;;;;;;;2.28;1.25;;;10.70;99.90;;;;;;5074536;28;20083;-70
2022/05/03 09:38:04;;;;;;;4.47;1.73;;;10.80;99.90;;;;;;5069099;28;20064;-73
2022/05/03 09:40:40;;;;;;;2.17;1.27;;;10.90;99.90;;;;;;5074622;28;20051;-72
2022/05/03 09:43:05;;;;;;;4.03;0.80;;;10.90;99.90;;;;;;5074661;28;20041;-72
2022/05/03 09:45:31;;;;;;;7.80;1.67;;;11.00;99.90;;;;;;5074253;28;20048;-72
2022/05/03 09:47:59;;;;;;;5.25;1.25;;;11.10;99.90;;;;;;5040950;28;20075;-71
2022/05/03 09:50:28;;;;;;;4.50;0.77;;;11.00;99.90;;;;;;5074566;28;20697;-72
2022/05/03 09:52:54;;;;;;;1.60;0.85;;;11.20;99.90;;;;;;5057524;28;20052;-72
2022/05/03 09:55:32;;;;;;;3.13;0.85;;;11.20;99.90;;;;;;5074436;28;20060;-72
2022/05/03 09:58:09;;;;;;;7.05;1.20;;;11.30;99.90;;;;;;5074168;28;20511;-72
2022/05/03 10:00:38;;;;;;;3.17;1.08;;;11.40;99.90;;;;;;5056940;28;20040;-72
2022/05/03 10:03:07;;;;;;;3.72;0.82;;;11.30;99.90;;;;;;5057044;28;20037;-71
2022/05/03 10:05:34;;;;;;;5.57;1.10;;;11.00;99.90;;;;;;5057504;28;20032;-72
2022/05/03 10:08:00;;;;;;;4.90;1.42;;;11.60;99.90;;;;;;5074235;28;20043;-71
2022/05/03 10:10:27;;;;;;;8.63;1.15;;;11.90;99.90;;;;;;5107981;28;20487;-71
2022/05/03 10:12:54;;;;;;;12.77;1.52;;;11.70;99.90;;;;;;5057121;28;20063;-71
2022/05/03 10:21:00;;;;;;;3.13;0.90;;;11.80;99.90;;;;;;5073469;28;20048;-73
2022/05/03 10:23:32;;;;;;;4.50;1.15;;;12.00;99.90;;;;;;5073521;28;20036;-72
2022/05/03 10:25:58;;;;;;;2.67;1.08;;;;;;;;;;5073360;28;20090;-73
2022/05/03 10:28:25;;;;;;;2.63;1.20;;;12.10;99.90;;;;;;5073741;28;20491;-73
2022/05/03 10:31:07;;;;;;;2.38;1.10;;;12.20;99.90;;;;;;5073724;28;20044;-73
2022/05/03 10:33:32;;;;;;;3.15;0.60;;;12.30;99.90;;;;;;5073288;28;20041;-71
2022/05/03 10:36:01;;;;;;;1.95;1.08;;;12.40;99.90;;;;;;5073503;28;20094;-72
2022/05/03 10:38:43;;;;;;;0.93;0.63;;;12.40;99.90;;;;;;5073145;28;20047;-70
2022/05/03 10:41:10;;;;;;;2.70;0.88;;;12.50;99.90;;;;;;5056419;28;20072;-70
2022/05/03 10:43:38;;;;;;;3.10;0.98;;;12.60;99.90;;;;;;5073166;28;20086;-72
2022/05/03 10:46:11;;;;;;;6.65;1.00;;;12.60;99.90;;;;;;5056518;28;20036;-71
2022/05/03 10:48:41;;;;;;;5.35;0.90;;;12.60;99.90;;;;;;5056552;28;20131;-70
2022/05/03 10:51:12;;;;;;;4.43;0.77;;;12.70;99.90;;;;;;5072864;28;20055;-72
2022/05/03 10:53:41;;;;;;;2.40;1.20;;;12.80;99.90;;;;;;5072866;28;20119;-72
2022/05/03 10:56:13;;;;;;;3.13;0.85;;;13.20;99.90;;;;;;5056260;28;20105;-72
2022/05/03 10:58:40;;;;;;;1.88;0.85;;;12.90;99.90;;;;;;5072774;28;20098;-70
2022/05/03 11:01:17;;;;;;;3.67;0.73;;;13.00;99.90;;;;;;5056252;28;20123;-70
2022/05/03 11:03:48;;;;;;;3.35;0.80;;;13.00;99.90;;;;;;5072587;28;20082;-70
2022/05/03 11:06:18;;;;;;;4.97;1.63;;;13.20;99.90;;;;;;5055972;28;20037;-71
2022/05/03 11:09:08;;;;;;;3.35;0.90;;;13.20;99.90;;;;;;5072585;28;20048;-71
2022/05/03 11:11:40;;;;;;;1.35;0.63;;;13.30;99.90;;;;;;5072509;28;20510;-71
2022/05/03 11:14:28;;;;;;;1.17;0.80;;;13.30;99.90;;;;;;5055840;28;20125;-71
2022/05/03 11:17:04;;;;;;;4.35;0.77;;;13.30;99.90;;;;;;5072076;28;20609;-72
2022/05/03 11:19:53;;;;;;;3.88;0.98;;;13.60;99.90;;;;;;5072574;28;20052;-72
2022/05/03 11:22:25;;;;;;;3.13;1.10;;;13.40;99.90;;;;;;5072296;28;20040;-70
2022/05/03 11:24:53;;;;;;;3.05;1.00;;;13.50;99.90;;;;;;5072228;28;20056;-70
2022/05/03 11:27:20;;;;;;;1.45;0.80;;;13.50;99.90;;;;;;5072142;28;20056;-72
2022/05/03 11:29:57;;;;;;;3.83;0.90;;;13.70;99.90;;;;;;5055315;28;20052;-70
2022/05/03 11:32:32;;;;;;;1.70;0.60;;;13.60;99.90;;;;;;5055458;28;20036;-71
2022/05/03 11:35:13;;;;;;;2.80;0.85;;;13.70;99.90;;;;;;5072348;28;20059;-71
2022/05/03 11:38:11;;;;;;;1.75;0.90;;;13.80;99.90;;;;;;5072088;28;20055;-72
2022/05/03 11:40:37;;;;;;;3.13;1.00;;;13.80;99.90;;;;;;5064321;28;20048;-72
2022/05/03 11:43:02;;;;;;;0.82;0.55;;;13.90;99.90;;;;;;5055783;28;20048;-71
2022/05/03 11:45:31;;;;;;;1.42;0.70;;;13.90;99.90;;;;;;5072046;28;20051;-73
2022/05/03 11:47:56;;;;;;;1.90;0.90;;;14.00;99.90;;;;;;5071840;28;20402;-73
2022/05/03 11:56:04;;;;;;;2.10;0.80;;;14.20;99.90;;;;;;5072200;28;20044;-70
2022/05/03 11:58:33;;;;;;;5.28;1.15;;;14.00;99.90;;;;;;5072318;28;20479;-72
2022/05/03 12:00:59;;;;;;;1.20;0.73;;;14.20;99.90;;;;;;5071737;28;20047;-74
2022/05/03 12:03:26;;;;;;;3.42;0.95;;;14.40;99.90;;;;;;5071708;28;20032;-74
2022/05/03 12:06:03;;;;;;;1.42;0.70;;;14.60;99.90;;;;;;5071698;28;20167;-73
2022/05/03 12:08:30;;;;;;;1.13;0.70;;;14.50;99.90;;;;;;5071707;28;20054;-72
2022/05/03 12:10:56;;;;;;;2.10;1.13;;;14.40;99.90;;;;;;5055260;28;20045;-73
2022/05/03 12:13:22;;;;;;;2.53;0.82;;;14.50;99.90;;;;;;5071961;28;20391;-73
2022/05/03 12:15:57;;;;;;;1.45;0.60;;;14.70;99.90;;;;;;5071721;28;20048;-72
2022/05/03 12:18:30;;;;;;;3.28;0.95;;;14.60;99.90;;;;;;5054749;28;20052;-73
2022/05/03 12:20:59;;;;;;;1.75;0.73;;;14.60;99.90;;;;;;5071226;28;20044;-72
2022/05/03 12:23:37;;;;;;;1.23;0.68;;;14.40;99.90;;;;;;5055069;28;20527;-72
2022/05/03 12:26:12;;;;;;;1.38;0.60;;;14.40;99.90;;;;;;5071686;28;20498;-73
2022/05/03 12:29:00;;;;;;;0.40;0.40;;;14.40;99.90;;;;;;5054812;28;20047;-72
2022/05/03 12:31:38;;;;;;;0.50;0.50;;;14.50;99.90;;;;;;5071144;28;20059;-72
2022/05/03 12:34:10;;;;;;;1.48;1.20;;;15.10;99.90;;;;;;5071750;28;20579;-72
2022/05/03 12:36:41;;;;;;;2.38;0.77;;;15.10;99.90;;;;;;5071366;28;20048;-72
2022/05/03 12:39:30;;;;;;;1.60;0.52;;;14.90;99.90;;;;;;5071426;28;20055;-71
2022/05/03 12:42:07;;;;;;;1.38;0.90;;;14.80;99.90;;;;;;5054737;28;20094;-72
2022/05/03 12:44:47;;;;;;;1.75;0.77;;;14.60;99.90;;;;;;5071651;28;20396;-72
2022/05/03 12:47:13;;;;;;;2.45;0.68;;;14.40;99.90;;;;;;5071605;28;20392;-70
2022/05/03 12:49:38;;;;;;;2.70;0.85;;;14.30;99.90;;;;;;5071516;28;20048;-71
2022/05/03 12:52:05;;;;;;;3.08;1.58;;;14.20;99.90;;;;;;5071289;28;20048;-71
2022/05/03 12:54:30;;;;;;;6.68;1.17;;;14.10;99.90;;;;;;5071232;28;20488;-72
2022/05/03 12:59:40;;;;;;;1.58;0.63;;;14.00;99.90;;;;;;5057273;28;20105;-68
2022/05/03 13:02:07;;;;;;;1.00;0.57;;;14.10;99.90;;;;;;5071326;28;20032;-68
2022/05/03 13:04:33;;;;;;;1.60;0.93;;;14.20;99.90;;;;;;5071270;28;20040;-69
2022/05/03 13:07:00;;;;;;;1.20;1.05;;;14.20;99.90;;;;;;5071154;28;20040;-70
2022/05/03 13:09:27;;;;;;;3.92;0.75;;;14.40;99.90;;;;;;5071297;28;20044;-71
2022/05/03 13:11:53;;;;;;;3.13;0.85;;;14.50;99.90;;;;;;5071086;28;20411;-71
2022/05/03 13:14:19;;;;;;;0.90;0.70;;;14.40;99.90;;;;;;5071104;28;20040;-71
2022/05/03 13:16:45;;;;;;;0.50;0.45;;;14.50;99.90;;;;;;5071090;28;20404;-69
2022/05/03 13:19:15;;;;;;;1.55;0.75;;;14.50;99.90;;;;;;5070998;28;20074;-70
2022/05/03 13:21:42;;;;;;;4.72;0.60;;;14.40;99.90;;;;;;5070908;28;20094;-69
2022/05/03 13:24:08;;;;;;;5.00;0.77;;;14.40;99.90;;;;;;5054179;28;20141;-71
2022/05/03 13:26:35;;;;;;;1.15;0.73;;;14.40;99.90;;;;;;5070877;28;20076;-71
2022/05/03 13:29:20;;;;;;;1.30;0.98;;;14.40;99.90;;;;;;5070918;28;20063;-70
2022/05/03 13:31:46;;;;;;;1.13;0.68;;;14.60;99.90;;;;;;5056789;28;20105;-70
2022/05/03 13:34:13;;;;;;;1.05;0.60;;;14.70;99.90;;;;;;5070957;28;20044;-70
2022/05/03 13:42:10;;;;;;;0.85;0.47;;;15.00;99.90;;;;;;5074348;28;20048;-72
2022/05/03 13:44:37;;;;;;;1.77;0.77;;;14.90;99.90;;;;;;5074588;28;20067;-70
2022/05/03 13:47:05;;;;;;;1.75;0.57;;;14.90;99.90;;;;;;5057675;28;20056;-70
2022/05/03 13:49:31;;;;;;;5.38;0.85;;;14.80;99.90;;;;;;5074487;28;20044;-70
2022/05/03 13:51:58;;;;;;;1.00;0.40;;;14.70;99.90;;;;;;5057587;28;20044;-70
2022/05/03 13:54:24;;;;;;;3.42;0.82;;;14.70;99.90;;;;;;5057533;28;20106;-71